sensor_id;sensor_type;location;lat;lon;timestamp;P1;durP1;ratioP1;P2;durP2;ratioP2
82475;SDS011;72099;43.176;76.872;2024-02-14T00:01:46;10.27;;;7.68;;
82475;SDS011;72099;43.176;76.872;2024-02-14T00:04:47;13.63;;;9.70;;
82475;SDS011;72099;43.176;76.872;2024-02-14T00:07:48;14.65;;;9.65;;
82475;SDS011;72099;43.176;76.872;2024-02-14T00:14:24;16.23;;;10.82;;
82475;SDS011;72099;43.176;76.872;2024-02-14T00:17:24;10.43;;;7.95;;
82475;SDS011;72099;43.176;76.872;2024-02-14T00:20:25;6.95;;;4.50;;
82475;SDS011;72099;43.176;76.872;2024-02-14T00:23:26;7.90;;;4.20;;
82475;SDS011;72099;43.176;76.872;2024-02-14T00:26:27;6.70;;;4.18;;
82475;SDS011;72099;43.176;76.872;2024-02-14T00:29:28;5.47;;;3.20;;
82475;SDS011;72099;43.176;76.872;2024-02-14T00:32:29;4.18;;;2.38;;
82475;SDS011;72099;43.176;76.872;2024-02-14T00:35:30;3.40;;;2.08;;
82475;SDS011;72099;43.176;76.872;2024-02-14T00:38:31;5.85;;;3.08;;
82475;SDS011;72099;43.176;76.872;2024-02-14T00:41:32;4.00;;;2.10;;
82475;SDS011;72099;43.176;76.872;2024-02-14T00:44:33;3.13;;;2.00;;
82475;SDS011;72099;43.176;76.872;2024-02-14T00:47:34;3.33;;;1.85;;
82475;SDS011;72099;43.176;76.872;2024-02-14T00:50:35;2.50;;;1.65;;
82475;SDS011;72099;43.176;76.872;2024-02-14T00:53:36;4.28;;;1.75;;
82475;SDS011;72099;43.176;76.872;2024-02-14T00:56:37;2.47;;;1.65;;
82475;SDS011;72099;43.176;76.872;2024-02-14T00:59:38;2.88;;;2.00;;
82475;SDS011;72099;43.176;76.872;2024-02-14T01:02:39;4.47;;;1.83;;
82475;SDS011;72099;43.176;76.872;2024-02-14T01:05:40;2.10;;;1.35;;
82475;SDS011;72099;43.176;76.872;2024-02-14T01:08:41;4.07;;;1.92;;
82475;SDS011;72099;43.176;76.872;2024-02-14T01:11:42;2.60;;;1.77;;
82475;SDS011;72099;43.176;76.872;2024-02-14T01:14:43;3.35;;;1.55;;
82475;SDS011;72099;43.176;76.872;2024-02-14T01:17:44;2.20;;;1.15;;
82475;SDS011;72099;43.176;76.872;2024-02-14T01:20:47;3.85;;;2.10;;
82475;SDS011;72099;43.176;76.872;2024-02-14T01:23:48;3.08;;;1.40;;
82475;SDS011;72099;43.176;76.872;2024-02-14T01:26:49;1.80;;;1.17;;
82475;SDS011;72099;43.176;76.872;2024-02-14T01:29:50;1.80;;;1.20;;
82475;SDS011;72099;43.176;76.872;2024-02-14T01:32:51;1.70;;;0.95;;
82475;SDS011;72099;43.176;76.872;2024-02-14T01:35:53;1.13;;;0.90;;
82475;SDS011;72099;43.176;76.872;2024-02-14T01:38:54;1.20;;;0.82;;
82475;SDS011;72099;43.176;76.872;2024-02-14T01:41:55;3.15;;;1.45;;
82475;SDS011;72099;43.176;76.872;2024-02-14T01:44:56;1.30;;;0.70;;
82475;SDS011;72099;43.176;76.872;2024-02-14T01:47:57;1.52;;;1.08;;
82475;SDS011;72099;43.176;76.872;2024-02-14T01:50:57;1.42;;;1.10;;
82475;SDS011;72099;43.176;76.872;2024-02-14T01:53:59;1.15;;;0.80;;
82475;SDS011;72099;43.176;76.872;2024-02-14T01:57:01;1.23;;;1.00;;
82475;SDS011;72099;43.176;76.872;2024-02-14T02:00:02;1.15;;;0.90;;
82475;SDS011;72099;43.176;76.872;2024-02-14T02:03:18;2.08;;;1.10;;
82475;SDS011;72099;43.176;76.872;2024-02-14T02:06:20;1.98;;;1.25;;
82475;SDS011;72099;43.176;76.872;2024-02-14T02:09:21;2.33;;;1.30;;
82475;SDS011;72099;43.176;76.872;2024-02-14T02:12:22;1.67;;;1.10;;
82475;SDS011;72099;43.176;76.872;2024-02-14T02:15:25;3.25;;;2.00;;
82475;SDS011;72099;43.176;76.872;2024-02-14T02:18:26;8.48;;;3.88;;
82475;SDS011;72099;43.176;76.872;2024-02-14T02:21:27;9.23;;;4.38;;
82475;SDS011;72099;43.176;76.872;2024-02-14T02:24:29;7.72;;;3.88;;
82475;SDS011;72099;43.176;76.872;2024-02-14T02:27:30;8.50;;;3.38;;
82475;SDS011;72099;43.176;76.872;2024-02-14T02:30:31;5.57;;;2.88;;
82475;SDS011;72099;43.176;76.872;2024-02-14T02:33:32;5.90;;;3.33;;
82475;SDS011;72099;43.176;76.872;2024-02-14T02:36:33;3.45;;;2.15;;
82475;SDS011;72099;43.176;76.872;2024-02-14T02:39:35;5.60;;;2.85;;
82475;SDS011;72099;43.176;76.872;2024-02-14T02:42:36;4.72;;;2.53;;
82475;SDS011;72099;43.176;76.872;2024-02-14T02:45:37;6.10;;;2.60;;
82475;SDS011;72099;43.176;76.872;2024-02-14T02:48:39;5.68;;;2.55;;
82475;SDS011;72099;43.176;76.872;2024-02-14T02:51:39;4.57;;;2.70;;
82475;SDS011;72099;43.176;76.872;2024-02-14T02:54:40;6.65;;;2.95;;
82475;SDS011;72099;43.176;76.872;2024-02-14T02:57:43;11.77;;;6.18;;
82475;SDS011;72099;43.176;76.872;2024-02-14T03:00:45;12.38;;;5.97;;
82475;SDS011;72099;43.176;76.872;2024-02-14T03:03:46;15.55;;;7.00;;
82475;SDS011;72099;43.176;76.872;2024-02-14T03:06:47;14.80;;;7.32;;
82475;SDS011;72099;43.176;76.872;2024-02-14T03:13:25;13.90;;;7.25;;
82475;SDS011;72099;43.176;76.872;2024-02-14T03:16:29;15.13;;;6.38;;
82475;SDS011;72099;43.176;76.872;2024-02-14T03:19:31;19.02;;;7.63;;
82475;SDS011;72099;43.176;76.872;2024-02-14T03:22:33;13.15;;;6.50;;
82475;SDS011;72099;43.176;76.872;2024-02-14T03:25:34;15.32;;;6.43;;
82475;SDS011;72099;43.176;76.872;2024-02-14T03:28:37;10.52;;;6.25;;
82475;SDS011;72099;43.176;76.872;2024-02-14T03:31:37;17.25;;;7.07;;
82475;SDS011;72099;43.176;76.872;2024-02-14T03:34:38;13.57;;;7.05;;
82475;SDS011;72099;43.176;76.872;2024-02-14T03:37:42;11.45;;;5.05;;
82475;SDS011;72099;43.176;76.872;2024-02-14T03:40:47;11.05;;;5.45;;
82475;SDS011;72099;43.176;76.872;2024-02-14T03:43:48;12.80;;;5.75;;
82475;SDS011;72099;43.176;76.872;2024-02-14T03:46:49;12.18;;;6.10;;
82475;SDS011;72099;43.176;76.872;2024-02-14T03:49:50;11.18;;;5.82;;
82475;SDS011;72099;43.176;76.872;2024-02-14T03:52:52;11.75;;;5.57;;
82475;SDS011;72099;43.176;76.872;2024-02-14T03:55:53;13.40;;;6.63;;
82475;SDS011;72099;43.176;76.872;2024-02-14T03:58:54;12.45;;;6.63;;
82475;SDS011;72099;43.176;76.872;2024-02-14T04:01:55;14.07;;;5.85;;
82475;SDS011;72099;43.176;76.872;2024-02-14T04:04:58;10.73;;;4.65;;
82475;SDS011;72099;43.176;76.872;2024-02-14T04:07:59;8.60;;;4.07;;
82475;SDS011;72099;43.176;76.872;2024-02-14T04:14:33;8.10;;;3.60;;
82475;SDS011;72099;43.176;76.872;2024-02-14T04:17:34;7.20;;;3.00;;
82475;SDS011;72099;43.176;76.872;2024-02-14T04:20:34;5.70;;;2.80;;
82475;SDS011;72099;43.176;76.872;2024-02-14T04:23:35;5.03;;;2.20;;
82475;SDS011;72099;43.176;76.872;2024-02-14T04:26:36;4.05;;;1.90;;
82475;SDS011;72099;43.176;76.872;2024-02-14T04:29:37;5.75;;;2.60;;
82475;SDS011;72099;43.176;76.872;2024-02-14T04:32:38;5.38;;;2.20;;
82475;SDS011;72099;43.176;76.872;2024-02-14T04:35:39;2.75;;;1.80;;
82475;SDS011;72099;43.176;76.872;2024-02-14T04:38:40;3.95;;;2.00;;
82475;SDS011;72099;43.176;76.872;2024-02-14T04:41:41;2.53;;;1.65;;
82475;SDS011;72099;43.176;76.872;2024-02-14T04:44:42;4.10;;;2.38;;
82475;SDS011;72099;43.176;76.872;2024-02-14T04:47:43;5.07;;;2.83;;
82475;SDS011;72099;43.176;76.872;2024-02-14T04:50:44;6.30;;;2.90;;
82475;SDS011;72099;43.176;76.872;2024-02-14T04:53:45;4.63;;;2.30;;
82475;SDS011;72099;43.176;76.872;2024-02-14T04:56:46;5.35;;;2.80;;
82475;SDS011;72099;43.176;76.872;2024-02-14T04:59:47;5.70;;;2.78;;
82475;SDS011;72099;43.176;76.872;2024-02-14T05:02:48;4.57;;;2.75;;
82475;SDS011;72099;43.176;76.872;2024-02-14T05:05:49;5.57;;;2.90;;
82475;SDS011;72099;43.176;76.872;2024-02-14T05:08:51;4.65;;;2.58;;
82475;SDS011;72099;43.176;76.872;2024-02-14T05:14:52;3.60;;;2.33;;
82475;SDS011;72099;43.176;76.872;2024-02-14T05:20:55;4.80;;;3.00;;
82475;SDS011;72099;43.176;76.872;2024-02-14T05:23:56;4.45;;;2.95;;
82475;SDS011;72099;43.176;76.872;2024-02-14T05:26:57;4.55;;;2.30;;
82475;SDS011;72099;43.176;76.872;2024-02-14T05:32:59;4.03;;;2.42;;
82475;SDS011;72099;43.176;76.872;2024-02-14T05:36:00;4.30;;;2.22;;
82475;SDS011;72099;43.176;76.872;2024-02-14T05:39:03;4.95;;;2.80;;
82475;SDS011;72099;43.176;76.872;2024-02-14T05:42:06;5.13;;;2.90;;
82475;SDS011;72099;43.176;76.872;2024-02-14T05:45:07;6.97;;;3.65;;
82475;SDS011;72099;43.176;76.872;2024-02-14T05:48:10;7.18;;;4.20;;
82475;SDS011;72099;43.176;76.872;2024-02-14T05:58:30;23.80;;;14.00;;
82475;SDS011;72099;43.176;76.872;2024-02-14T06:01:32;30.90;;;17.85;;
82475;SDS011;72099;43.176;76.872;2024-02-14T06:07:33;73.30;;;37.72;;
82475;SDS011;72099;43.176;76.872;2024-02-14T06:10:34;69.25;;;41.17;;
82475;SDS011;72099;43.176;76.872;2024-02-14T06:13:35;71.38;;;41.40;;
82475;SDS011;72099;43.176;76.872;2024-02-14T06:19:37;63.67;;;38.55;;
82475;SDS011;72099;43.176;76.872;2024-02-14T06:22:39;74.57;;;42.40;;
82475;SDS011;72099;43.176;76.872;2024-02-14T06:28:40;50.67;;;29.40;;
82475;SDS011;72099;43.176;76.872;2024-02-14T06:34:42;42.22;;;22.50;;
82475;SDS011;72099;43.176;76.872;2024-02-14T06:44:16;33.75;;;18.30;;
82475;SDS011;72099;43.176;76.872;2024-02-14T06:47:18;32.05;;;18.92;;
82475;SDS011;72099;43.176;76.872;2024-02-14T06:53:19;22.52;;;14.32;;
82475;SDS011;72099;43.176;76.872;2024-02-14T06:56:20;26.05;;;13.23;;
82475;SDS011;72099;43.176;76.872;2024-02-14T06:59:21;15.57;;;8.82;;
82475;SDS011;72099;43.176;76.872;2024-02-14T07:02:22;15.45;;;8.13;;
82475;SDS011;72099;43.176;76.872;2024-02-14T07:05:23;11.25;;;6.97;;
82475;SDS011;72099;43.176;76.872;2024-02-14T07:08:24;8.95;;;6.03;;
82475;SDS011;72099;43.176;76.872;2024-02-14T07:11:27;16.17;;;6.97;;
82475;SDS011;72099;43.176;76.872;2024-02-14T07:14:28;10.63;;;6.88;;
82475;SDS011;72099;43.176;76.872;2024-02-14T07:17:29;13.32;;;7.57;;
82475;SDS011;72099;43.176;76.872;2024-02-14T07:20:30;13.40;;;7.78;;
82475;SDS011;72099;43.176;76.872;2024-02-14T07:23:32;16.13;;;9.10;;
82475;SDS011;72099;43.176;76.872;2024-02-14T07:26:34;18.40;;;9.80;;
82475;SDS011;72099;43.176;76.872;2024-02-14T07:29:34;15.50;;;9.68;;
82475;SDS011;72099;43.176;76.872;2024-02-14T07:32:36;15.98;;;10.15;;
82475;SDS011;72099;43.176;76.872;2024-02-14T07:35:37;18.30;;;9.50;;
82475;SDS011;72099;43.176;76.872;2024-02-14T07:38:38;17.92;;;10.98;;
82475;SDS011;72099;43.176;76.872;2024-02-14T07:41:39;18.63;;;10.25;;
82475;SDS011;72099;43.176;76.872;2024-02-14T07:44:39;17.85;;;11.75;;
82475;SDS011;72099;43.176;76.872;2024-02-14T07:47:40;30.60;;;17.27;;
82475;SDS011;72099;43.176;76.872;2024-02-14T07:50:41;24.25;;;14.70;;
82475;SDS011;72099;43.176;76.872;2024-02-14T07:53:42;22.63;;;11.57;;
82475;SDS011;72099;43.176;76.872;2024-02-14T07:56:43;34.45;;;20.45;;
82475;SDS011;72099;43.176;76.872;2024-02-14T07:59:44;57.75;;;37.15;;
82475;SDS011;72099;43.176;76.872;2024-02-14T08:02:45;85.60;;;51.80;;
82475;SDS011;72099;43.176;76.872;2024-02-14T08:05:45;95.75;;;58.00;;
82475;SDS011;72099;43.176;76.872;2024-02-14T08:08:46;103.15;;;61.47;;
82475;SDS011;72099;43.176;76.872;2024-02-14T08:11:51;109.55;;;61.75;;
82475;SDS011;72099;43.176;76.872;2024-02-14T08:14:53;103.95;;;67.25;;
82475;SDS011;72099;43.176;76.872;2024-02-14T08:17:54;108.22;;;64.10;;
82475;SDS011;72099;43.176;76.872;2024-02-14T08:24:39;101.40;;;64.13;;
82475;SDS011;72099;43.176;76.872;2024-02-14T08:27:39;103.35;;;59.17;;
82475;SDS011;72099;43.176;76.872;2024-02-14T08:34:16;101.97;;;61.90;;
82475;SDS011;72099;43.176;76.872;2024-02-14T08:37:17;100.95;;;61.53;;
82475;SDS011;72099;43.176;76.872;2024-02-14T08:40:18;106.47;;;64.88;;
82475;SDS011;72099;43.176;76.872;2024-02-14T08:43:18;110.70;;;66.45;;
82475;SDS011;72099;43.176;76.872;2024-02-14T08:46:19;106.07;;;63.30;;
82475;SDS011;72099;43.176;76.872;2024-02-14T08:49:20;104.32;;;62.88;;
82475;SDS011;72099;43.176;76.872;2024-02-14T08:52:21;105.78;;;65.13;;
82475;SDS011;72099;43.176;76.872;2024-02-14T08:55:22;99.22;;;61.45;;
82475;SDS011;72099;43.176;76.872;2024-02-14T08:58:23;101.88;;;63.95;;
82475;SDS011;72099;43.176;76.872;2024-02-14T09:01:24;102.30;;;63.42;;
82475;SDS011;72099;43.176;76.872;2024-02-14T09:04:26;115.75;;;68.63;;
82475;SDS011;72099;43.176;76.872;2024-02-14T09:07:27;115.53;;;69.43;;
82475;SDS011;72099;43.176;76.872;2024-02-14T09:13:29;108.72;;;66.40;;
82475;SDS011;72099;43.176;76.872;2024-02-14T09:16:30;114.32;;;66.70;;
82475;SDS011;72099;43.176;76.872;2024-02-14T09:19:31;122.65;;;71.43;;
82475;SDS011;72099;43.176;76.872;2024-02-14T09:22:34;111.10;;;69.55;;
82475;SDS011;72099;43.176;76.872;2024-02-14T09:25:35;121.82;;;73.72;;
82475;SDS011;72099;43.176;76.872;2024-02-14T09:31:40;122.60;;;71.78;;
82475;SDS011;72099;43.176;76.872;2024-02-14T09:37:41;119.38;;;68.20;;
82475;SDS011;72099;43.176;76.872;2024-02-14T09:43:43;120.55;;;66.20;;
82475;SDS011;72099;43.176;76.872;2024-02-14T09:46:45;110.60;;;65.93;;
82475;SDS011;72099;43.176;76.872;2024-02-14T09:49:48;111.93;;;64.90;;
82475;SDS011;72099;43.176;76.872;2024-02-14T09:52:51;122.88;;;71.45;;
82475;SDS011;72099;43.176;76.872;2024-02-14T09:55:54;120.85;;;70.18;;
82475;SDS011;72099;43.176;76.872;2024-02-14T09:58:55;122.35;;;72.13;;
82475;SDS011;72099;43.176;76.872;2024-02-14T10:01:57;123.85;;;71.47;;
82475;SDS011;72099;43.176;76.872;2024-02-14T10:04:58;125.15;;;75.00;;
82475;SDS011;72099;43.176;76.872;2024-02-14T10:07:59;123.07;;;70.05;;
82475;SDS011;72099;43.176;76.872;2024-02-14T10:14:41;117.47;;;69.38;;
82475;SDS011;72099;43.176;76.872;2024-02-14T10:17:43;126.57;;;73.60;;
82475;SDS011;72099;43.176;76.872;2024-02-14T10:20:56;127.15;;;73.40;;
82475;SDS011;72099;43.176;76.872;2024-02-14T10:27:01;123.13;;;69.22;;
82475;SDS011;72099;43.176;76.872;2024-02-14T10:30:04;125.03;;;70.03;;
82475;SDS011;72099;43.176;76.872;2024-02-14T10:33:09;127.97;;;66.40;;
82475;SDS011;72099;43.176;76.872;2024-02-14T10:36:10;143.45;;;76.03;;
82475;SDS011;72099;43.176;76.872;2024-02-14T10:39:13;124.72;;;72.18;;
82475;SDS011;72099;43.176;76.872;2024-02-14T10:42:17;124.60;;;71.53;;
82475;SDS011;72099;43.176;76.872;2024-02-14T10:45:19;123.63;;;73.40;;
82475;SDS011;72099;43.176;76.872;2024-02-14T10:48:21;128.35;;;75.05;;
82475;SDS011;72099;43.176;76.872;2024-02-14T10:51:26;128.40;;;69.68;;
82475;SDS011;72099;43.176;76.872;2024-02-14T10:54:31;124.38;;;68.95;;
82475;SDS011;72099;43.176;76.872;2024-02-14T10:57:35;131.15;;;75.88;;
82475;SDS011;72099;43.176;76.872;2024-02-14T11:00:36;119.82;;;72.03;;
82475;SDS011;72099;43.176;76.872;2024-02-14T11:03:38;115.10;;;65.40;;
82475;SDS011;72099;43.176;76.872;2024-02-14T11:06:46;113.50;;;63.38;;
82475;SDS011;72099;43.176;76.872;2024-02-14T11:09:48;113.22;;;66.60;;
82475;SDS011;72099;43.176;76.872;2024-02-14T11:13:00;120.13;;;66.35;;
82475;SDS011;72099;43.176;76.872;2024-02-14T11:16:02;108.03;;;58.95;;
82475;SDS011;72099;43.176;76.872;2024-02-14T11:19:08;102.22;;;60.92;;
82475;SDS011;72099;43.176;76.872;2024-02-14T11:22:21;100.55;;;58.60;;
82475;SDS011;72099;43.176;76.872;2024-02-14T11:25:22;111.90;;;60.10;;
82475;SDS011;72099;43.176;76.872;2024-02-14T11:28:43;99.45;;;53.88;;
82475;SDS011;72099;43.176;76.872;2024-02-14T11:31:48;108.97;;;61.90;;
82475;SDS011;72099;43.176;76.872;2024-02-14T11:34:58;104.63;;;56.15;;
82475;SDS011;72099;43.176;76.872;2024-02-14T11:37:59;110.35;;;61.35;;
82475;SDS011;72099;43.176;76.872;2024-02-14T11:41:01;104.95;;;58.58;;
82475;SDS011;72099;43.176;76.872;2024-02-14T11:44:04;100.28;;;54.88;;
82475;SDS011;72099;43.176;76.872;2024-02-14T11:47:05;103.47;;;56.30;;
82475;SDS011;72099;43.176;76.872;2024-02-14T11:50:06;93.00;;;52.13;;
82475;SDS011;72099;43.176;76.872;2024-02-14T11:53:13;86.07;;;45.67;;
82475;SDS011;72099;43.176;76.872;2024-02-14T11:56:22;67.57;;;37.50;;
82475;SDS011;72099;43.176;76.872;2024-02-14T11:59:24;69.13;;;36.20;;
82475;SDS011;72099;43.176;76.872;2024-02-14T12:02:25;65.88;;;34.00;;
82475;SDS011;72099;43.176;76.872;2024-02-14T12:05:26;58.20;;;30.23;;
82475;SDS011;72099;43.176;76.872;2024-02-14T12:08:27;52.50;;;26.58;;
82475;SDS011;72099;43.176;76.872;2024-02-14T12:11:28;55.60;;;29.55;;
82475;SDS011;72099;43.176;76.872;2024-02-14T12:17:30;51.25;;;23.15;;
82475;SDS011;72099;43.176;76.872;2024-02-14T12:20:32;44.20;;;20.02;;
82475;SDS011;72099;43.176;76.872;2024-02-14T12:23:33;37.60;;;19.38;;
82475;SDS011;72099;43.176;76.872;2024-02-14T12:26:35;28.95;;;15.82;;
82475;SDS011;72099;43.176;76.872;2024-02-14T12:29:39;21.58;;;11.02;;
82475;SDS011;72099;43.176;76.872;2024-02-14T12:32:40;17.80;;;8.88;;
82475;SDS011;72099;43.176;76.872;2024-02-14T12:35:44;16.90;;;9.43;;
82475;SDS011;72099;43.176;76.872;2024-02-14T12:38:46;20.23;;;9.60;;
82475;SDS011;72099;43.176;76.872;2024-02-14T12:41:48;21.33;;;9.75;;
82475;SDS011;72099;43.176;76.872;2024-02-14T12:44:51;19.45;;;7.35;;
82475;SDS011;72099;43.176;76.872;2024-02-14T12:47:53;14.15;;;7.57;;
82475;SDS011;72099;43.176;76.872;2024-02-14T12:54:28;15.20;;;7.82;;
82475;SDS011;72099;43.176;76.872;2024-02-14T12:57:29;17.63;;;8.20;;
82475;SDS011;72099;43.176;76.872;2024-02-14T13:00:30;14.18;;;6.70;;
82475;SDS011;72099;43.176;76.872;2024-02-14T13:03:32;13.95;;;7.93;;
82475;SDS011;72099;43.176;76.872;2024-02-14T13:06:33;13.98;;;7.25;;
82475;SDS011;72099;43.176;76.872;2024-02-14T13:09:34;17.92;;;8.52;;
82475;SDS011;72099;43.176;76.872;2024-02-14T13:12:36;16.80;;;7.88;;
82475;SDS011;72099;43.176;76.872;2024-02-14T13:15:38;12.52;;;6.85;;
82475;SDS011;72099;43.176;76.872;2024-02-14T13:18:40;15.15;;;6.65;;
82475;SDS011;72099;43.176;76.872;2024-02-14T13:21:41;12.07;;;6.35;;
82475;SDS011;72099;43.176;76.872;2024-02-14T13:24:45;12.05;;;5.80;;
82475;SDS011;72099;43.176;76.872;2024-02-14T13:27:46;8.27;;;4.90;;
82475;SDS011;72099;43.176;76.872;2024-02-14T13:30:47;8.27;;;4.97;;
82475;SDS011;72099;43.176;76.872;2024-02-14T13:33:48;9.65;;;5.72;;
82475;SDS011;72099;43.176;76.872;2024-02-14T13:36:49;10.43;;;5.03;;
82475;SDS011;72099;43.176;76.872;2024-02-14T13:40:02;9.35;;;5.03;;
82475;SDS011;72099;43.176;76.872;2024-02-14T13:43:09;9.55;;;4.38;;
82475;SDS011;72099;43.176;76.872;2024-02-14T13:46:10;6.10;;;4.07;;
82475;SDS011;72099;43.176;76.872;2024-02-14T13:52:16;8.40;;;4.50;;
82475;SDS011;72099;43.176;76.872;2024-02-14T13:55:18;7.63;;;4.22;;
82475;SDS011;72099;43.176;76.872;2024-02-14T13:58:18;8.10;;;3.88;;
82475;SDS011;72099;43.176;76.872;2024-02-14T14:01:19;18.52;;;9.55;;
82475;SDS011;72099;43.176;76.872;2024-02-14T14:04:20;8.38;;;4.57;;
82475;SDS011;72099;43.176;76.872;2024-02-14T14:07:21;8.10;;;4.38;;
82475;SDS011;72099;43.176;76.872;2024-02-14T14:10:23;15.60;;;5.88;;
82475;SDS011;72099;43.176;76.872;2024-02-14T14:13:27;11.85;;;5.88;;
82475;SDS011;72099;43.176;76.872;2024-02-14T14:16:31;15.23;;;7.20;;
82475;SDS011;72099;43.176;76.872;2024-02-14T14:19:33;13.45;;;6.07;;
82475;SDS011;72099;43.176;76.872;2024-02-14T14:22:34;11.77;;;6.28;;
82475;SDS011;72099;43.176;76.872;2024-02-14T14:25:35;14.60;;;6.63;;
82475;SDS011;72099;43.176;76.872;2024-02-14T14:28:37;9.07;;;4.63;;
82475;SDS011;72099;43.176;76.872;2024-02-14T14:31:38;11.45;;;5.57;;
82475;SDS011;72099;43.176;76.872;2024-02-14T14:34:41;7.03;;;3.47;;
82475;SDS011;72099;43.176;76.872;2024-02-14T14:37:42;7.50;;;4.18;;
82475;SDS011;72099;43.176;76.872;2024-02-14T14:40:43;5.55;;;3.22;;
82475;SDS011;72099;43.176;76.872;2024-02-14T14:43:45;8.60;;;3.38;;
82475;SDS011;72099;43.176;76.872;2024-02-14T14:46:49;4.05;;;2.53;;
82475;SDS011;72099;43.176;76.872;2024-02-14T14:49:50;5.80;;;2.78;;
82475;SDS011;72099;43.176;76.872;2024-02-14T14:52:51;4.43;;;2.75;;
82475;SDS011;72099;43.176;76.872;2024-02-14T14:55:54;4.25;;;1.98;;
82475;SDS011;72099;43.176;76.872;2024-02-14T14:58:56;4.32;;;2.10;;
82475;SDS011;72099;43.176;76.872;2024-02-14T15:01:59;3.15;;;1.70;;
82475;SDS011;72099;43.176;76.872;2024-02-14T15:05:00;5.25;;;2.90;;
82475;SDS011;72099;43.176;76.872;2024-02-14T15:08:01;6.68;;;3.45;;
82475;SDS011;72099;43.176;76.872;2024-02-14T15:11:02;7.15;;;2.72;;
82475;SDS011;72099;43.176;76.872;2024-02-14T15:14:05;6.70;;;2.92;;
82475;SDS011;72099;43.176;76.872;2024-02-14T15:17:07;7.28;;;3.22;;
82475;SDS011;72099;43.176;76.872;2024-02-14T15:20:26;5.75;;;2.90;;
82475;SDS011;72099;43.176;76.872;2024-02-14T15:23:28;5.90;;;2.92;;
82475;SDS011;72099;43.176;76.872;2024-02-14T15:26:30;6.47;;;2.95;;
82475;SDS011;72099;43.176;76.872;2024-02-14T15:29:39;5.43;;;3.13;;
82475;SDS011;72099;43.176;76.872;2024-02-14T15:32:59;7.63;;;3.25;;
82475;SDS011;72099;43.176;76.872;2024-02-14T15:36:18;7.88;;;3.00;;
82475;SDS011;72099;43.176;76.872;2024-02-14T15:39:20;6.13;;;2.83;;
82475;SDS011;72099;43.176;76.872;2024-02-14T15:42:21;5.70;;;2.75;;
82475;SDS011;72099;43.176;76.872;2024-02-14T15:45:22;6.68;;;3.20;;
82475;SDS011;72099;43.176;76.872;2024-02-14T15:48:23;7.57;;;2.90;;
82475;SDS011;72099;43.176;76.872;2024-02-14T15:51:30;6.10;;;2.78;;
82475;SDS011;72099;43.176;76.872;2024-02-14T15:54:31;4.85;;;2.95;;
82475;SDS011;72099;43.176;76.872;2024-02-14T15:57:32;5.55;;;2.90;;
82475;SDS011;72099;43.176;76.872;2024-02-14T16:00:33;6.63;;;2.83;;
82475;SDS011;72099;43.176;76.872;2024-02-14T16:03:35;4.70;;;2.50;;
82475;SDS011;72099;43.176;76.872;2024-02-14T16:06:36;5.22;;;2.30;;
82475;SDS011;72099;43.176;76.872;2024-02-14T16:13:17;5.03;;;2.50;;
82475;SDS011;72099;43.176;76.872;2024-02-14T16:16:19;2.92;;;1.83;;
82475;SDS011;72099;43.176;76.872;2024-02-14T16:19:20;3.20;;;1.80;;
82475;SDS011;72099;43.176;76.872;2024-02-14T16:22:21;6.28;;;2.53;;
82475;SDS011;72099;43.176;76.872;2024-02-14T16:25:24;3.63;;;2.00;;
82475;SDS011;72099;43.176;76.872;2024-02-14T16:28:28;3.72;;;2.08;;
82475;SDS011;72099;43.176;76.872;2024-02-14T16:31:29;5.57;;;2.65;;
82475;SDS011;72099;43.176;76.872;2024-02-14T16:34:30;6.30;;;2.85;;
82475;SDS011;72099;43.176;76.872;2024-02-14T16:37:31;5.05;;;2.95;;
82475;SDS011;72099;43.176;76.872;2024-02-14T16:40:31;7.10;;;3.10;;
82475;SDS011;72099;43.176;76.872;2024-02-14T16:43:35;6.80;;;3.28;;
82475;SDS011;72099;43.176;76.872;2024-02-14T16:46:35;7.35;;;3.50;;
82475;SDS011;72099;43.176;76.872;2024-02-14T16:53:07;10.90;;;4.38;;
82475;SDS011;72099;43.176;76.872;2024-02-14T16:56:08;10.55;;;5.30;;
82475;SDS011;72099;43.176;76.872;2024-02-14T16:59:09;8.02;;;4.40;;
82475;SDS011;72099;43.176;76.872;2024-02-14T17:02:09;8.57;;;4.00;;
82475;SDS011;72099;43.176;76.872;2024-02-14T17:05:13;6.03;;;2.45;;
82475;SDS011;72099;43.176;76.872;2024-02-14T17:08:14;5.75;;;2.63;;
82475;SDS011;72099;43.176;76.872;2024-02-14T17:11:15;8.27;;;2.90;;
82475;SDS011;72099;43.176;76.872;2024-02-14T17:14:17;9.52;;;3.55;;
82475;SDS011;72099;43.176;76.872;2024-02-14T17:17:19;7.18;;;2.88;;
82475;SDS011;72099;43.176;76.872;2024-02-14T17:20:21;7.10;;;2.80;;
82475;SDS011;72099;43.176;76.872;2024-02-14T17:23:22;6.40;;;2.67;;
82475;SDS011;72099;43.176;76.872;2024-02-14T17:26:22;5.85;;;2.33;;
82475;SDS011;72099;43.176;76.872;2024-02-14T17:32:50;5.00;;;2.50;;
82475;SDS011;72099;43.176;76.872;2024-02-14T17:35:50;4.88;;;2.47;;
82475;SDS011;72099;43.176;76.872;2024-02-14T17:41:52;2.72;;;1.90;;
82475;SDS011;72099;43.176;76.872;2024-02-14T17:44:53;5.82;;;2.53;;
82475;SDS011;72099;43.176;76.872;2024-02-14T17:47:54;5.15;;;2.38;;
82475;SDS011;72099;43.176;76.872;2024-02-14T17:50:55;4.50;;;2.40;;
82475;SDS011;72099;43.176;76.872;2024-02-14T17:53:56;5.85;;;2.97;;
82475;SDS011;72099;43.176;76.872;2024-02-14T17:56:57;5.35;;;2.65;;
82475;SDS011;72099;43.176;76.872;2024-02-14T18:03:30;4.40;;;2.53;;
82475;SDS011;72099;43.176;76.872;2024-02-14T18:06:31;3.92;;;2.10;;
82475;SDS011;72099;43.176;76.872;2024-02-14T18:09:32;4.32;;;2.10;;
82475;SDS011;72099;43.176;76.872;2024-02-14T18:12:33;5.32;;;2.15;;
82475;SDS011;72099;43.176;76.872;2024-02-14T18:15:34;4.60;;;2.25;;
82475;SDS011;72099;43.176;76.872;2024-02-14T18:18:35;3.58;;;2.08;;
82475;SDS011;72099;43.176;76.872;2024-02-14T18:21:36;3.97;;;2.30;;
82475;SDS011;72099;43.176;76.872;2024-02-14T18:24:37;4.43;;;2.47;;
82475;SDS011;72099;43.176;76.872;2024-02-14T18:27:38;5.30;;;2.70;;
82475;SDS011;72099;43.176;76.872;2024-02-14T18:34:12;2.35;;;1.77;;
82475;SDS011;72099;43.176;76.872;2024-02-14T18:37:13;4.47;;;2.20;;
82475;SDS011;72099;43.176;76.872;2024-02-14T18:40:14;4.30;;;1.75;;
82475;SDS011;72099;43.176;76.872;2024-02-14T18:43:17;2.90;;;1.80;;
82475;SDS011;72099;43.176;76.872;2024-02-14T18:46:18;2.42;;;1.50;;
82475;SDS011;72099;43.176;76.872;2024-02-14T18:49:20;2.30;;;1.25;;
82475;SDS011;72099;43.176;76.872;2024-02-14T18:52:21;3.03;;;1.67;;
82475;SDS011;72099;43.176;76.872;2024-02-14T18:55:22;2.88;;;1.75;;
82475;SDS011;72099;43.176;76.872;2024-02-14T18:58:23;2.17;;;1.55;;
82475;SDS011;72099;43.176;76.872;2024-02-14T19:01:24;3.13;;;1.60;;
82475;SDS011;72099;43.176;76.872;2024-02-14T19:04:25;2.88;;;1.50;;
82475;SDS011;72099;43.176;76.872;2024-02-14T19:07:27;2.55;;;1.50;;
82475;SDS011;72099;43.176;76.872;2024-02-14T19:10:28;2.88;;;1.50;;
82475;SDS011;72099;43.176;76.872;2024-02-14T19:13:28;2.13;;;1.40;;
82475;SDS011;72099;43.176;76.872;2024-02-14T19:16:29;2.50;;;1.60;;
82475;SDS011;72099;43.176;76.872;2024-02-14T19:19:30;1.95;;;1.27;;
82475;SDS011;72099;43.176;76.872;2024-02-14T19:22:35;3.00;;;1.50;;
82475;SDS011;72099;43.176;76.872;2024-02-14T19:25:36;2.78;;;1.35;;
82475;SDS011;72099;43.176;76.872;2024-02-14T19:28:37;1.70;;;1.10;;
82475;SDS011;72099;43.176;76.872;2024-02-14T19:31:38;2.75;;;1.60;;